NEODyS-2

Near Earth Objects - Dynamic Site
NEODyS ∴ Observatories ∴ Site 691 ∴ Obs & residuals
Contact »
691  ▹ 
OBSERVATIONS AND RESIDUALS

691-Steward Observatory, Kitt Peak-Spacewatch

Detections | Residuals | Detections & Residuals

[1-200] [201-400] [401-600] [601-800] [801-1000] [1001-1200] [1201-1400] [1401-1600] [1601-1800] [1801-2000] [2001-2200] [2201-2400] [2401-2600] [2601-2800] [2801-3000] [3001-3200] [3201-3400] [3401-3600] [3601-3800] [3801-4000] [4001-4200] [4201-4400] [4401-4600] [4601-4800] [4801-5000] [5001-5200] [5201-5400] [5401-5600] [5601-5800] [5801-6000] [6001-6200] [6201-6400] [6401-6600] [6601-6800] [6801-7000] [7001-7200] [7201-7400] [7401-7600] [7601-7800] [7801-8000] [8001-8200] [8201-8400] [8401-8600] [8601-8800] [8801-9000] [9001-9200] [9201-9400] [9401-9600] [9601-9800] [9801-10000] [10001-10200] [10201-10400] [10401-10600] [10601-10800] [10801-11000] [11001-11200] [11201-11400] [11401-11600] [11601-11800] [11801-12000] [12001-12200] [12201-12400] [12401-12600] [12601-12800] [12801-13000] [13001-13200] [13201-13400] [13401-13600] [13601-13800] [13801-14000] [14001-14200] [14201-14400] [14401-14600] [14601-14800] [14801-15000] [15001-15200] [15201-15400] [15401-15600] [15601-15800] [15801-16000] [16001-16200] [16201-16400] [16401-16600] [16601-16800] [16801-17000] [17001-17200] [17201-17400] [17401-17600] [17601-17800] [17801-18000] [18001-18200] [18201-18400] [18401-18600] [18601-18800] [18801-19000] [19001-19200] [19201-19400] [19401-19600] [19601-19800] [19801-20000] [20001-20200] [20201-20400] [20401-20600] [20601-20800] [20801-21000] [21001-21200] [21201-21400] [21401-21600] [21601-21800] [21801-22000] [22001-22200] [22201-22400] [22401-22600] [22601-22800] [22801-23000] [23001-23200] [23201-23400] [23401-23600] [23601-23800] [23801-24000] [24001-24200] [24201-24400] [24401-24600] [24601-24800] [24801-25000] [25001-25200] [25201-25400] [25401-25600] [25601-25800] [25801-26000] [26001-26200] [26201-26400] [26401-26600] [26601-26800] [26801-27000] [27001-27200] [27201-27400] [27401-27600] [27601-27800] [27801-28000] [28001-28200] [28201-28400] [28401-28600] [28601-28800] [28801-29000] [29001-29200] [29201-29400] [29401-29600] [29601-29800] [29801-30000] [30001-30200] [30201-30400] [30401-30600] [30601-30800] [30801-31000] [31001-31200] [31201-31400] [31401-31600] [31601-31800] [31801-32000] [32001-32200] [32201-32400] [32401-32600] [32601-32800] [32801-33000] [33001-33200] [33201-33400] [33401-33600] [33601-33800] [33801-34000] [34001-34200] [34201-34400] [34401-34600] [34601-34800] [34801-35000] [35001-35200] [35201-35400] [35401-35600] [35601-35800] [35801-36000] [36001-36200] [36201-36400] [36401-36600] [36601-36800] [36801-37000] [37001-37200] [37201-37400] [37401-37600] [37601-37800] [37801-38000] [38001-38200] [38201-38400] [38401-38600] [38601-38800] [38801-39000] [39001-39200] [39201-39400] [39401-39600] [39601-39800] [39801-40000] [40001-40200] [40201-40400] [40401-40600] [40601-40800] [40801-41000] [41001-41200] [41201-41400] [41401-41600] [41601-41800] [41801-42000] [42001-42200] [42201-42400] [42401-42600] [42601-42800] [42801-43000] [43001-43200] [43201-43400] [43401-43600] [43601-43800] [43801-44000] [44001-44200] [44201-44400] [44401-44600] [44601-44800] [44801-45000] [45001-45200] [45201-45400] [45401-45600] [45601-45800] [45801-46000] [46001-46200] [46201-46400] [46401-46600] [46601-46800] [46801-47000] [47001-47200] [47201-47400] [47401-47600] [47601-47800] [47801-48000] [48001-48200] [48201-48400] [48401-48600] [48601-48800] [48801-49000] [49001-49200] [49201-49400] [49401-49600] [49601-49800] [49801-50000] [50001-50200] [50201-50388]

Designation T Tech N Date Right Ascension Declination Apparent Magnitude Star Catalog Site code χ Used A Used M
yr-mo-day precision hr:min:sec precision rms F bias residual deg min sec precision rms F bias residual mag/col rms residual
2021GY3 O C K 2021-04-19.30308 1.000E-05 14:14:34.680 1.500E-01 0.500 F 0.150 -0.243 +18° 25' 40.70" 1.000E-01 0.500 F 0.283 -0.168 21.5 R 0.70 0.66 o 691 0.60 Yes Yes
2021HF1 O C K 2021-04-19.31105 1.000E-05 13:55:27.110 1.500E-01 0.500 F 0.157 0.656 -01° 16' 46.70" 1.000E-01 0.500 F 0.249 -0.457 21.7 R 0.70 0.16 o 691 1.64 Yes Yes
2021HF1 O C K 2021-04-19.32633 1.000E-05 13:55:30.630 1.500E-01 0.500 F 0.157 0.348 -01° 17' 26.00" 1.000E-01 0.500 F 0.249 -0.123 o 691 0.75 Yes No
2021HP1 O C K 2021-04-19.36062 1.000E-05 16:56:23.430 1.500E-01 0.500 F -0.025 -0.080 -08° 47' 06.40" 1.000E-01 0.500 F 0.080 -0.158 o 691 0.35 Yes No
2021HP1 O C K 2021-04-19.38913 1.000E-05 16:56:26.420 1.500E-01 0.500 F -0.025 -0.257 -08° 46' 23.00" 1.000E-01 0.500 F 0.080 0.679 o 691 1.46 Yes No
2018UQ1 O C K 2021-04-19.42587 1.000E-05 15:39:20.020 1.500E-01 0.500 F 0.176 0.308 -22° 57' 23.50" 1.000E-01 0.500 F -0.039 0.678 21.0 R 0.70 -0.32 o 691 1.49 Yes Yes
2018UQ1 O C K 2021-04-19.44276 1.000E-05 15:39:17.220 1.500E-01 0.500 F 0.176 0.666 -22° 57' 10.80" 1.000E-01 0.500 F -0.039 1.094 20.7 R 0.70 -0.62 o 691 2.56 Yes Yes
2021GK1 O C K 2021-04-20.12515 1.000E-05 11:34:26.560 1.500E-01 0.500 F 0.050 -0.884 -12° 45' 54.30" 1.000E-01 0.500 F 0.056 0.455 o 691 1.99 Yes No
2021HC2 O C K 2021-04-20.14297 1.000E-05 13:14:27.680 1.500E-01 0.500 F 0.439 -1.302 -10° 45' 09.80" 1.000E-01 0.500 F 0.080 0.687 20.8 R 0.70 -0.22 o 691 3.01 Yes Yes
2021GK1 O C K 2021-04-20.15599 1.000E-05 11:34:17.850 1.500E-01 0.500 F 0.050 -0.256 -12° 46' 24.80" 1.000E-01 0.500 F 0.056 0.508 19.6 R 0.70 -0.22 o 691 1.14 Yes Yes
2021HC2 O C K 2021-04-20.16283 1.000E-05 13:14:28.770 1.500E-01 0.500 F 0.439 -1.508 -10° 46' 29.70" 1.000E-01 0.500 F 0.080 0.290 o 691 3.13 Yes No
2021GK1 O C K 2021-04-20.17584 1.000E-05 11:34:11.990 1.500E-01 0.500 F 0.050 -0.863 -12° 46' 43.30" 1.000E-01 0.500 F 0.056 0.327 19.8 R 0.70 -0.02 o 691 1.85 Yes Yes
2021HC2 O C K 2021-04-20.18270 1.000E-05 13:14:29.600 1.500E-01 0.500 F 0.439 -2.172 -10° 47' 47.50" 1.000E-01 0.500 F 0.080 0.982 20.9 R 0.70 -0.13 o 691 4.68 No Yes
2021GY1 O C K 2021-04-20.19649 1.000E-05 11:58:05.660 1.500E-01 0.500 F 0.239 -0.221 +03° 58' 00.10" 1.000E-01 0.500 F 0.205 0.353 20.6 R 0.70 -0.02 o 691 0.84 Yes Yes
2021GP3 O C K 2021-04-20.20886 1.000E-05 12:16:27.570 1.500E-01 0.500 F 0.256 -0.158 +07° 09' 26.90" 1.000E-01 0.500 F 0.268 0.059 20.3 R 0.70 0.51 o 691 0.36 Yes Yes
2021GY1 O C K 2021-04-20.21475 1.000E-05 11:58:01.690 1.500E-01 0.500 F 0.239 -0.309 +03° 58' 03.80" 1.000E-01 0.500 F 0.205 0.134 20.6 R 0.70 -0.02 o 691 0.68 Yes Yes
2021GP3 O C K 2021-04-20.22711 1.000E-05 12:16:16.450 1.500E-01 0.500 F 0.256 0.058 +07° 09' 08.10" 1.000E-01 0.500 F 0.268 -0.178 20.5 R 0.70 0.70 o 691 0.37 Yes Yes
2021GY1 O C K 2021-04-20.23301 1.000E-05 11:57:57.730 1.500E-01 0.500 F 0.239 -0.149 +03° 58' 07.40" 1.000E-01 0.500 F 0.205 -0.127 20.9 R 0.70 0.28 o 691 0.39 Yes Yes
2021GP3 O C K 2021-04-20.24536 1.000E-05 12:16:05.300 1.500E-01 0.500 F 0.256 -0.126 +07° 08' 49.70" 1.000E-01 0.500 F 0.268 0.152 20.1 R 0.70 0.30 o 691 0.42 Yes Yes
2021HA2 O C K 2021-04-20.25707 1.000E-05 14:21:57.970 1.500E-01 0.500 F 0.115 0.375 -02° 03' 51.40" 1.000E-01 0.500 F 0.208 -0.172 20.5 R 0.70 0.76 o 691 0.83 Yes Yes
2021HA2 O C K 2021-04-20.26739 1.000E-05 14:21:47.650 1.500E-01 0.500 F 0.115 -0.102 -02° 03' 41.70" 1.000E-01 0.500 F 0.208 0.167 20.1 R 0.70 0.35 o 691 0.42 Yes Yes
2021HA2 O C K 2021-04-20.27772 1.000E-05 14:21:37.390 1.500E-01 0.500 F 0.115 0.259 -02° 03' 32.50" 1.000E-01 0.500 F 0.208 -0.005 20.0 R 0.70 0.25 o 691 0.51 Yes Yes
2021HR1 O C K 2021-04-20.29181 1.000E-05 15:56:19.460 1.500E-01 0.500 F 0.129 -0.130 +27° 22' 52.30" 1.000E-01 0.500 F 0.286 -0.200 21.4 R 0.70 0.49 o 691 0.49 Yes Yes
2021HR1 O C K 2021-04-20.29945 1.000E-05 15:56:20.590 1.500E-01 0.500 F 0.129 0.500 +27° 23' 09.70" 1.000E-01 0.500 F 0.286 -0.583 21.6 R 0.70 0.69 o 691 1.56 Yes Yes
2021HR1 O C K 2021-04-20.30709 1.000E-05 15:56:21.620 1.500E-01 0.500 F 0.129 -0.176 +27° 23' 28.00" 1.000E-01 0.500 F 0.286 -0.050 21.1 R 0.70 0.19 o 691 0.38 Yes Yes
2021HV1 O C K 2021-04-20.32250 1.000E-05 18:15:27.610 1.500E-01 0.500 F -0.047 -0.334 +07° 39' 35.00" 1.000E-01 0.500 F 0.228 -0.258 o 691 0.86 Yes No
2021HV1 O C K 2021-04-20.32990 1.000E-05 18:15:17.590 1.500E-01 0.500 F -0.047 -0.111 +07° 38' 54.40" 1.000E-01 0.500 F 0.228 -0.288 o 691 0.62 Yes No
2020TH5 O C K 2021-04-20.33492 1.000E-05 18:07:13.210 1.500E-01 0.500 F -0.043 -0.309 -02° 50' 56.00" 1.000E-01 0.500 F 0.424 -0.148 19.0 R 0.70 0.01 o 691 0.69 Yes Yes
2021HV1 O C K 2021-04-20.33732 1.000E-05 18:15:07.540 1.500E-01 0.500 F -0.047 0.135 +07° 38' 14.10" 1.000E-01 0.500 F 0.228 0.111 o 691 0.35 Yes No
2020TH5 O C K 2021-04-20.34233 1.000E-05 18:07:11.450 1.500E-01 0.500 F -0.043 0.090 -02° 50' 52.40" 1.000E-01 0.500 F 0.424 -0.261 19.3 R 0.70 0.31 o 691 0.56 Yes Yes
2010FF10 O C K 2021-04-20.37636 1.000E-05 12:18:23.210 1.500E-01 0.500 F 0.182 -0.377 +22° 51' 27.30" 1.000E-01 0.500 F 0.213 -0.050 19.3 R 0.70 0.09 o 691 0.77 Yes Yes
2021GF8 O C K 2021-04-20.37974 1.000E-05 11:51:24.940 1.500E-01 0.500 F 0.206 0.172 +28° 39' 41.50" 1.000E-01 0.500 F 0.241 0.017 19.2 R 0.70 -0.16 o 691 0.39 Yes Yes
2021GF8 O C K 2021-04-20.38714 1.000E-05 11:51:22.830 1.500E-01 0.500 F 0.206 -0.060 +28° 37' 37.20" 1.000E-01 0.500 F 0.241 -0.321 19.4 R 0.70 0.04 o 691 0.67 Yes Yes
2010FF10 O C K 2021-04-20.39116 1.000E-05 12:18:21.450 1.500E-01 0.500 F 0.182 -0.119 +22° 52' 43.90" 1.000E-01 0.500 F 0.213 0.057 19.2 R 0.70 -0.01 o 691 0.27 Yes Yes
2021GF8 O C K 2021-04-20.39455 1.000E-05 11:51:20.770 1.500E-01 0.500 F 0.206 -0.086 +28° 35' 33.30" 1.000E-01 0.500 F 0.241 0.293 19.3 R 0.70 -0.06 o 691 0.63 Yes Yes
2021FL3 O C K 2021-04-20.40201 1.000E-05 13:45:13.790 1.500E-01 0.500 F 0.340 0.312 +14° 41' 56.80" 1.000E-01 0.500 F 0.160 0.301 21.7 R 0.70 0.92 o 691 0.88 Yes Yes
2021GY3 O C K 2021-04-20.40617 1.000E-05 14:12:00.870 1.500E-01 0.500 F 0.234 -0.099 +18° 34' 21.00" 1.000E-01 0.500 F 0.295 0.163 20.4 R 0.70 -0.52 o 691 0.38 Yes Yes
2021FL3 O C K 2021-04-20.41062 1.000E-05 13:45:12.640 1.500E-01 0.500 F 0.340 0.123 +14° 41' 40.60" 1.000E-01 0.500 F 0.160 0.188 21.6 R 0.70 0.82 o 691 0.46 Yes Yes
2021GY3 O C K 2021-04-20.41478 1.000E-05 14:11:59.630 1.500E-01 0.500 F 0.234 -0.318 +18° 34' 24.90" 1.000E-01 0.500 F 0.295 0.562 19.5 R 0.70 -1.42 o 691 1.30 Yes Yes
2021FL3 O C K 2021-04-20.42195 1.000E-05 13:45:11.150 1.500E-01 0.500 F 0.340 0.077 +14° 41' 19.50" 1.000E-01 0.500 F 0.160 0.285 21.3 R 0.70 0.52 o 691 0.60 Yes Yes
2021GY3 O C K 2021-04-20.42339 1.000E-05 14:11:58.440 1.500E-01 0.500 F 0.234 0.134 +18° 34' 27.40" 1.000E-01 0.500 F 0.295 -0.417 19.9 R 0.70 -1.02 o 691 0.89 Yes Yes
2014GD50 O C H 2021-04-20.43691 1.000E-05 16:35:50.650 1.500E-01 0.612 F 0.198 -0.153 +21° 51' 39.00" 1.000E-01 0.612 F 0.242 0.120 20.1 R 0.70 -0.03 o 691 0.31 Yes Yes
2014GD50 O C 2021-04-20.43691 1.000E-05 16:35:50.620 1.500E-01 0.612 F 0.198 -0.571 +21° 51' 39.20" 1.000E-01 0.612 F 0.242 0.320 20.4 V 0.70 -0.13 o 691 1.06 Yes Yes
2014GD50 O C H 2021-04-20.44552 1.000E-05 16:35:50.380 1.500E-01 0.612 F 0.198 -0.157 +21° 51' 38.30" 1.000E-01 0.612 F 0.242 0.041 20.2 R 0.70 0.07 o 691 0.25 Yes Yes
2014GD50 O C 2021-04-20.44552 1.000E-05 16:35:50.360 1.500E-01 0.612 F 0.198 -0.435 +21° 51' 38.10" 1.000E-01 0.612 F 0.242 -0.159 20.3 V 0.70 -0.23 o 691 0.74 Yes Yes
2014GD50 O C 2021-04-20.45407 1.000E-05 16:35:50.100 1.500E-01 0.612 F 0.198 -0.327 +21° 51' 37.70" 1.000E-01 0.612 F 0.242 0.078 20.2 V 0.70 -0.33 o 691 0.54 Yes Yes
2014GD50 O C H 2021-04-20.45407 1.000E-05 16:35:50.130 1.500E-01 0.612 F 0.198 0.090 +21° 51' 37.80" 1.000E-01 0.612 F 0.242 0.178 20.1 R 0.70 -0.03 o 691 0.34 Yes Yes
2021CX5 O C K 2021-04-20.46725 1.000E-05 19:41:04.970 1.500E-01 0.500 F -0.048 -0.444 -21° 23' 07.20" 1.000E-01 0.500 F 0.067 -0.440 o 691 1.31 Yes No
2021CX5 O C K 2021-04-20.47407 1.000E-05 19:41:05.210 1.500E-01 0.500 F -0.048 0.456 -21° 22' 55.10" 1.000E-01 0.500 F 0.067 -0.027 o 691 0.94 Yes No
2021CX5 O C K 2021-04-20.48089 1.000E-05 19:41:05.370 1.500E-01 0.500 F -0.048 0.324 -21° 22' 43.50" 1.000E-01 0.500 F 0.067 -0.165 o 691 0.75 Yes No
2021GK1 O C K 2021-04-21.13709 1.000E-05 11:31:44.840 1.500E-01 0.500 F 0.030 -0.215 -12° 59' 45.80" 1.000E-01 0.500 F 0.152 0.149 19.6 R 0.70 -0.16 o 691 0.52 Yes Yes
2021GK1 O C K 2021-04-21.14067 1.000E-05 11:31:43.770 1.500E-01 0.500 F 0.030 -0.157 -12° 59' 49.70" 1.000E-01 0.500 F 0.152 0.104 19.6 R 0.70 -0.16 o 691 0.38 Yes Yes
2021GK1 O C K 2021-04-21.14424 1.000E-05 11:31:42.690 1.500E-01 0.500 F 0.030 -0.209 -12° 59' 53.60" 1.000E-01 0.500 F 0.152 0.011 19.7 R 0.70 -0.06 o 691 0.42 Yes Yes
2021FN4 O C K 2021-04-21.17738 1.000E-05 12:22:37.700 1.500E-01 0.500 F 0.205 -0.173 +21° 15' 51.00" 1.000E-01 0.500 F 0.292 0.024 20.6 R 0.70 0.17 o 691 0.35 Yes Yes
2021FN4 O C K 2021-04-21.18368 1.000E-05 12:22:37.050 1.500E-01 0.500 F 0.205 -0.164 +21° 15' 54.40" 1.000E-01 0.500 F 0.292 0.202 19.9 R 0.70 -0.53 o 691 0.51 Yes Yes
2021FN4 O C K 2021-04-21.18997 1.000E-05 12:22:36.400 1.500E-01 0.500 F 0.205 -0.140 +21° 15' 57.40" 1.000E-01 0.500 F 0.292 0.012 19.9 R 0.70 -0.53 o 691 0.28 Yes Yes
2021GR6 O C K 2021-04-21.22657 1.000E-05 13:34:38.090 1.500E-01 0.500 F 0.209 0.442 -05° 02' 49.10" 1.000E-01 0.500 F -0.006 0.223 20.3 R 0.70 0.35 o 691 1.03 Yes Yes
2021GR6 O C K 2021-04-21.22895 1.000E-05 13:34:37.200 1.500E-01 0.500 F 0.209 0.395 -05° 02' 52.90" 1.000E-01 0.500 F -0.006 0.469 20.2 R 0.70 0.25 o 691 1.27 Yes Yes
2021GR6 O C K 2021-04-21.23134 1.000E-05 13:34:36.300 1.500E-01 0.500 F 0.209 0.254 -05° 02' 57.50" 1.000E-01 0.500 F -0.006 -0.070 20.4 R 0.70 0.45 o 691 0.54 Yes Yes
2021GV7 O C K 2021-04-21.25266 1.000E-05 13:30:20.410 1.500E-01 0.500 F 0.228 0.027 -02° 51' 39.90" 1.000E-01 0.500 F 0.124 -0.141 21.2 R 0.70 0.55 o 691 0.31 Yes Yes
2021GV7 O C K 2021-04-21.26205 1.000E-05 13:30:18.970 1.500E-01 0.500 F 0.228 -0.412 -02° 51' 19.70" 1.000E-01 0.500 F 0.124 0.176 20.9 R 0.70 0.24 o 691 0.97 Yes Yes
2021GV7 O C K 2021-04-21.27144 1.000E-05 13:30:17.580 1.500E-01 0.500 F 0.228 -0.098 -02° 51' 00.50" 1.000E-01 0.500 F 0.124 -0.499 21.0 R 0.70 0.34 o 691 1.07 Yes Yes
2014KB91 O C K 2021-04-21.29168 1.000E-05 15:12:23.700 1.500E-01 0.500 F 0.153 0.008 -14° 36' 27.90" 1.000E-01 0.500 F 0.101 -0.005 o 691 0.02 Yes No
2014KB91 O C K 2021-04-21.30893 1.000E-05 15:12:22.740 1.500E-01 0.500 F 0.153 -0.319 -14° 36' 19.20" 1.000E-01 0.500 F 0.101 -0.031 22.4 R 0.70 0.64 o 691 0.64 Yes Yes
2014KB91 O C K 2021-04-21.32618 1.000E-05 15:12:21.890 1.500E-01 0.500 F 0.153 0.992 -14° 36' 10.30" 1.000E-01 0.500 F 0.101 0.117 21.1 R 0.70 -0.66 o 691 2.00 Yes Yes
2021GU9 O C K 2021-04-21.35963 1.000E-05 14:16:02.620 1.500E-01 0.500 F 0.264 -0.019 +08° 58' 11.00" 1.000E-01 0.500 F 0.309 0.284 22.1 R 0.70 0.32 o 691 0.59 Yes Yes
2021GU9 O C K 2021-04-21.39704 1.000E-05 14:16:09.170 1.500E-01 0.500 F 0.264 0.705 +09° 00' 21.50" 1.000E-01 0.500 F 0.309 -0.858 22.0 R 0.70 0.22 o 691 2.31 Yes Yes
2021EM3 O C K 2021-04-21.46113 1.000E-05 16:41:09.190 1.500E-01 0.500 F 0.117 0.372 +16° 10' 59.20" 1.000E-01 0.500 F 0.291 -0.026 22.0 R 0.70 0.13 o 691 0.77 Yes Yes
2021EM3 O C K 2021-04-21.47871 1.000E-05 16:41:08.970 1.500E-01 0.500 F 0.117 0.835 +16° 10' 24.40" 1.000E-01 0.500 F 0.291 -0.693 22.4 R 0.70 0.53 o 691 2.24 Yes Yes
2014GD50 O C K 2021-04-23.28416 1.000E-05 16:34:22.560 1.500E-01 0.500 F 0.163 -0.250 +21° 45' 28.30" 1.000E-01 0.500 F 0.266 0.271 19.7 R 0.70 -0.19 o 691 0.73 Yes Yes
2014GD50 O C K 2021-04-23.29142 1.000E-05 16:34:22.230 1.500E-01 0.500 F 0.163 -0.324 +21° 45' 27.20" 1.000E-01 0.500 F 0.266 0.389 19.8 R 0.70 -0.09 o 691 1.01 Yes Yes
2014GD50 O C K 2021-04-23.29869 1.000E-05 16:34:21.900 1.500E-01 0.500 F 0.163 -0.362 +21° 45' 25.40" 1.000E-01 0.500 F 0.266 -0.178 20.0 R 0.70 0.11 o 691 0.79 Yes Yes
2014QZ432 O C 2021-04-23.30784 1.000E-05 15:31:53.180 1.500E-01 0.500 F -0.034 0.188 -17° 19' 32.90" 1.000E-01 0.500 F 0.171 -0.378 20.5 R 0.70 0.51 o 691 0.85 Yes Yes
2014QZ432 O C 2021-04-23.31511 1.000E-05 15:31:53.120 1.500E-01 0.500 F -0.034 -0.081 -17° 19' 31.10" 1.000E-01 0.500 F 0.171 -0.190 20.6 R 0.70 0.61 o 691 0.41 Yes Yes
2014QZ432 O C 2021-04-23.32238 1.000E-05 15:31:53.060 1.500E-01 0.500 F -0.034 -0.340 -17° 19' 29.30" 1.000E-01 0.500 F 0.171 -0.010 20.8 R 0.70 0.81 o 691 0.68 Yes Yes
2021CT5 O C K 2021-04-23.33191 1.000E-05 18:50:47.740 1.500E-01 0.500 F 0.093 -0.211 +28° 34' 22.50" 1.000E-01 0.500 F 0.257 -0.108 19.9 R 0.70 0.67 o 691 0.48 Yes Yes
2021CT5 O C K 2021-04-23.33540 1.000E-05 18:50:47.630 1.500E-01 0.500 F 0.093 -0.110 +28° 34' 12.00" 1.000E-01 0.500 F 0.257 -0.530 19.7 R 0.70 0.47 o 691 1.09 Yes Yes
2021CT5 O C K 2021-04-23.34414 1.000E-05 18:50:47.330 1.500E-01 0.500 F 0.093 -0.145 +28° 33' 47.50" 1.000E-01 0.500 F 0.257 0.222 19.6 R 0.70 0.38 o 691 0.54 Yes Yes
2020TH5 O C K 2021-04-23.35592 1.000E-05 17:55:52.030 1.500E-01 0.500 F -0.049 -0.256 -02° 27' 20.50" 1.000E-01 0.500 F 0.226 -0.891 18.7 R 0.70 -0.29 o 691 1.87 Yes Yes
2020TH5 O C K 2021-04-23.36100 1.000E-05 17:55:50.850 1.500E-01 0.500 F -0.049 -0.036 -02° 27' 17.60" 1.000E-01 0.500 F 0.226 -0.116 19.0 R 0.70 0.01 o 691 0.24 Yes Yes
2021GQ6 O C K 2021-04-23.37042 1.000E-05 14:43:03.020 1.500E-01 0.500 F 0.026 -0.341 -17° 45' 49.20" 1.000E-01 0.500 F 0.110 0.151 19.6 R 0.70 0.06 o 691 0.75 Yes Yes
2021GQ6 O C K 2021-04-23.38035 1.000E-05 14:43:01.080 1.500E-01 0.500 F 0.026 -0.161 -17° 46' 03.70" 1.000E-01 0.500 F 0.110 0.276 19.4 R 0.70 -0.14 o 691 0.64 Yes Yes
2021GQ6 O C K 2021-04-23.39028 1.000E-05 14:42:59.180 1.500E-01 0.500 F 0.026 0.582 -17° 46' 19.00" 1.000E-01 0.500 F 0.110 -0.418 19.0 R 0.70 -0.54 o 691 1.45 Yes Yes
2014YR O C K 2021-04-23.40173 1.000E-05 16:43:24.890 1.500E-01 0.500 F 0.072 -0.219 +02° 39' 35.10" 1.000E-01 0.500 F 0.227 -0.294 20.2 R 0.70 -0.06 o 691 0.74 Yes Yes
2014YR O C K 2021-04-23.40930 1.000E-05 16:43:25.470 1.500E-01 0.500 F 0.072 0.011 +02° 40' 01.50" 1.000E-01 0.500 F 0.227 -0.193 20.6 R 0.70 0.34 o 691 0.39 Yes Yes
2014YR O C K 2021-04-23.41688 1.000E-05 16:43:26.030 1.500E-01 0.500 F 0.072 -0.067 +02° 40' 28.20" 1.000E-01 0.500 F 0.227 0.167 20.4 R 0.70 0.14 o 691 0.36 Yes Yes
2021FP1 O C 2021-04-23.42777 1.000E-05 17:08:54.030 1.500E-01 0.500 F -0.022 -0.028 -09° 36' 56.70" 1.000E-01 0.500 F 0.068 0.171 19.2 R 0.70 0.25 o 691 0.35 Yes Yes
2021FP1 O C 2021-04-23.43093 1.000E-05 17:08:55.620 1.500E-01 0.500 F -0.022 -0.181 -09° 36' 58.60" 1.000E-01 0.500 F 0.068 0.290 19.1 R 0.70 0.15 o 691 0.69 Yes Yes
2021FP1 O C 2021-04-23.43303 1.000E-05 17:08:56.670 1.500E-01 0.500 F -0.022 -0.381 -09° 36' 59.90" 1.000E-01 0.500 F 0.068 0.329 19.0 R 0.70 0.05 o 691 1.02 Yes Yes
2021HM O C 2021-04-23.43661 1.000E-05 18:45:11.320 1.500E-01 0.500 F 0.004 -0.331 +01° 08' 33.50" 1.000E-01 0.500 F 0.374 0.086 19.3 R 0.70 0.15 o 691 0.71 Yes Yes
2021HM O C 2021-04-23.44086 1.000E-05 18:45:13.000 1.500E-01 0.500 F 0.004 -0.369 +01° 08' 49.30" 1.000E-01 0.500 F 0.374 0.397 19.6 R 0.70 0.45 o 691 1.11 Yes Yes
2021HM O C 2021-04-23.44415 1.000E-05 18:45:14.290 1.500E-01 0.500 F 0.068 -0.520 +01° 09' 00.60" 1.000E-01 0.500 F 0.333 -0.231 19.2 R 0.70 0.05 o 691 1.18 Yes Yes
2003KO2 O C 2021-04-23.44944 1.000E-05 19:22:07.990 1.500E-01 0.500 F 0.049 -0.728 -06° 24' 03.90" 1.000E-01 0.500 F 0.283 -0.115 18.2 R 0.70 0.14 o 691 1.49 Yes Yes
2003KO2 O C 2021-04-23.45337 1.000E-05 19:22:06.110 1.500E-01 0.500 F 0.049 -0.159 -06° 23' 27.70" 1.000E-01 0.500 F 0.283 0.172 18.3 R 0.70 0.24 o 691 0.49 Yes Yes
2003KO2 O C 2021-04-23.45534 1.000E-05 19:22:05.180 1.500E-01 0.500 F 0.049 0.319 -06° 23' 10.00" 1.000E-01 0.500 F 0.283 -0.136 18.1 R 0.70 0.04 o 691 0.69 Yes Yes
2021HR1 O C K 2021-04-24.19606 1.000E-05 16:06:49.370 1.500E-01 0.500 F 0.239 -0.981 +29° 57' 04.90" 1.000E-01 0.500 F 0.214 -0.189 20.8 R 0.70 0.05 o 691 2.03 Yes Yes
2021HR1 O C K 2021-04-24.21107 1.000E-05 16:06:51.990 1.500E-01 0.500 F 0.239 0.059 +29° 57' 42.90" 1.000E-01 0.500 F 0.214 -0.073 21.1 R 0.70 0.35 o 691 0.19 Yes Yes
2021HK O C K 2021-04-24.28529 1.000E-05 15:09:01.640 1.500E-01 0.500 F 0.245 0.026 -04° 47' 02.30" 1.000E-01 0.500 F 0.165 0.427 21.3 R 0.70 0.56 o 691 0.91 Yes Yes
2021HK O C K 2021-04-24.30317 1.000E-05 15:09:02.080 1.500E-01 0.500 F 0.245 -0.553 -04° 48' 44.60" 1.000E-01 0.500 F 0.165 0.329 21.2 R 0.70 0.46 o 691 1.36 Yes Yes
2021HK O C K 2021-04-24.32104 1.000E-05 15:09:02.510 1.500E-01 0.500 F 0.245 -0.719 -04° 50' 25.90" 1.000E-01 0.500 F 0.165 0.675 22.1 R 0.70 1.36 o 691 2.09 Yes Yes
2021HM O C K 2021-04-24.48399 1.000E-05 18:52:58.570 1.500E-01 0.500 F -0.192 0.115 +02° 01' 13.60" 1.000E-01 0.500 F 0.164 0.019 o 691 0.24 Yes No
2021HM O C K 2021-04-24.48943 1.000E-05 18:52:59.940 1.500E-01 0.500 F -0.192 0.665 +02° 01' 27.30" 1.000E-01 0.500 F 0.164 0.017 19.6 R 0.70 0.02 o 691 1.38 Yes Yes
2021HM O C K 2021-04-24.49161 1.000E-05 18:53:00.430 1.500E-01 0.500 F -0.192 0.023 +02° 01' 32.70" 1.000E-01 0.500 F 0.164 -0.064 19.5 R 0.70 -0.08 o 691 0.14 Yes Yes
2021GM4 O C K 2021-04-30.14342 1.000E-05 09:25:08.640 1.500E-01 0.500 F 0.106 0.235 -16° 25' 44.30" 1.000E-01 0.500 F -0.153 -0.371 20.4 R 0.70 0.05 o 691 0.88 Yes Yes
2021GM4 O C K 2021-04-30.15665 1.000E-05 09:25:07.590 1.500E-01 0.500 F 0.106 -0.097 -16° 25' 47.40" 1.000E-01 0.500 F -0.153 0.116 20.7 R 0.70 0.35 o 691 0.30 Yes Yes
2021GM4 O C K 2021-04-30.16989 1.000E-05 09:25:06.550 1.500E-01 0.500 F 0.106 -0.377 -16° 25' 50.80" 1.000E-01 0.500 F -0.153 0.238 20.8 R 0.70 0.45 o 691 0.89 Yes Yes
2021CW5 O C K 2021-04-30.18886 1.000E-05 10:30:40.500 1.500E-01 0.500 F 0.185 -0.030 -21° 38' 38.50" 1.000E-01 0.500 F -0.049 -0.282 22.4 R 0.70 1.31 o 691 0.59 Yes Yes
2021CY10 O C K 2021-04-30.19507 1.000E-05 09:51:30.550 1.500E-01 0.500 F 0.057 0.127 +12° 27' 59.80" 1.000E-01 0.500 F 0.247 -0.051 21.3 R 0.70 0.01 o 691 0.28 Yes Yes
2021CW5 O C K 2021-04-30.20300 1.000E-05 10:30:42.750 1.500E-01 0.500 F 0.185 -0.411 -21° 39' 02.30" 1.000E-01 0.500 F -0.049 -0.299 22.3 R 0.70 1.21 o 691 1.07 Yes Yes
2021CY10 O C K 2021-04-30.20919 1.000E-05 09:51:32.510 1.500E-01 0.500 F 0.057 -0.043 +12° 27' 40.20" 1.000E-01 0.500 F 0.247 -0.274 21.0 R 0.70 -0.29 o 691 0.56 Yes Yes
2021EV O C K 2021-04-30.21689 1.000E-05 08:48:22.030 1.500E-01 0.500 F 0.051 -1.221 +23° 27' 23.70" 1.000E-01 0.500 F 0.310 1.110 o 691 3.21 No No
2021EV O C K 2021-04-30.22274 1.000E-05 08:48:22.970 1.500E-01 0.500 F 0.051 0.369 +23° 27' 11.00" 1.000E-01 0.500 F 0.310 0.273 o 691 0.94 Yes No
2021EV O C K 2021-04-30.22857 1.000E-05 08:48:23.770 1.500E-01 0.500 F 0.051 0.050 +23° 26' 58.80" 1.000E-01 0.500 F 0.310 -0.099 o 691 0.23 Yes No
2021GH1 O C K 2021-04-30.23969 1.000E-05 12:23:27.280 1.500E-01 0.500 F 0.466 -0.136 -24° 34' 34.30" 1.000E-01 0.500 F 0.280 0.438 o 691 0.96 Yes No
2021GH1 O C K 2021-04-30.24617 1.000E-05 12:23:28.040 1.500E-01 0.500 F 0.466 -0.617 -24° 34' 55.50" 1.000E-01 0.500 F 0.280 -1.033 o 691 2.48 Yes No
2021GK1 O C K 2021-04-30.26705 1.000E-05 10:53:41.890 1.500E-01 0.500 F 0.024 -0.185 -16° 45' 13.30" 1.000E-01 0.500 F -0.057 -0.043 18.9 R 0.70 -0.14 o 691 0.39 Yes Yes
2021GY1 O C K 2021-04-30.27164 1.000E-05 11:21:34.250 1.500E-01 0.500 F 0.118 -0.093 +04° 06' 24.60" 1.000E-01 0.500 F 0.257 0.037 21.0 R 0.70 0.45 o 691 0.20 Yes Yes
2021GK1 O C K 2021-04-30.27945 1.000E-05 10:53:34.440 1.500E-01 0.500 F 0.024 0.421 -16° 45' 34.60" 1.000E-01 0.500 F -0.057 -0.083 18.8 R 0.70 -0.24 o 691 0.87 Yes Yes
2021GY1 O C K 2021-04-30.28402 1.000E-05 11:21:30.950 1.500E-01 0.500 F 0.118 -0.193 +04° 06' 22.40" 1.000E-01 0.500 F 0.257 -0.298 20.8 R 0.70 0.25 o 691 0.72 Yes Yes
2021GK1 O C K 2021-04-30.29184 1.000E-05 10:53:27.140 1.500E-01 0.500 F 0.024 0.703 -16° 45' 54.70" 1.000E-01 0.500 F -0.057 0.298 18.8 R 0.70 -0.24 o 691 1.55 Yes Yes
2021GY1 O C K 2021-04-30.29642 1.000E-05 11:21:27.690 1.500E-01 0.500 F 0.118 0.140 +04° 06' 20.90" 1.000E-01 0.500 F 0.257 0.099 20.9 R 0.70 0.35 o 691 0.35 Yes Yes
2021HE O C K 2021-04-30.30562 1.000E-05 12:19:23.440 1.500E-01 0.500 F 0.130 0.377 +07° 54' 53.30" 1.000E-01 0.500 F 0.145 0.417 20.4 R 0.70 0.48 o 691 1.14 Yes Yes
2021FN4 O C K 2021-04-30.31369 1.000E-05 12:07:53.640 1.500E-01 0.500 F 0.249 0.192 +22° 01' 38.10" 1.000E-01 0.500 F 0.245 0.156 19.3 R 0.70 -0.65 o 691 0.50 Yes Yes
2021HE O C K 2021-04-30.31656 1.000E-05 12:19:24.620 1.500E-01 0.500 F 0.130 0.781 +07° 56' 42.30" 1.000E-01 0.500 F 0.145 0.400 20.2 R 0.70 0.28 o 691 1.78 Yes Yes
2021FN4 O C K 2021-04-30.32403 1.000E-05 12:07:52.220 1.500E-01 0.500 F 0.249 0.075 +22° 01' 38.00" 1.000E-01 0.500 F 0.245 -0.054 18.9 R 0.70 -1.05 o 691 0.20 Yes Yes
2021HE O C K 2021-04-30.32691 1.000E-05 12:19:25.680 1.500E-01 0.500 F 0.130 0.156 +07° 58' 25.30" 1.000E-01 0.500 F 0.145 0.275 20.0 R 0.70 0.08 o 691 0.64 Yes Yes
2021HJ2 O C K 2021-04-30.34041 1.000E-05 14:56:00.300 1.500E-01 0.500 F 0.169 0.122 +09° 50' 44.10" 1.000E-01 0.500 F 0.118 -0.103 19.9 R 0.70 0.29 o 691 0.32 Yes Yes
2021HJ2 O C K 2021-04-30.36208 1.000E-05 14:55:55.360 1.500E-01 0.500 F 0.169 -0.646 +09° 50' 26.30" 1.000E-01 0.500 F 0.118 0.532 o 691 1.68 Yes No
2021GB24 O C K 2021-04-30.37492 1.000E-05 15:08:08.070 1.500E-01 0.500 F 0.115 0.393 -03° 25' 46.80" 1.000E-01 0.500 F 0.187 -0.150 21.2 R 0.70 -0.10 o 691 0.85 Yes Yes
2021GB24 O C K 2021-04-30.38951 1.000E-05 15:08:05.220 1.500E-01 0.500 F 0.115 -0.073 -03° 25' 43.50" 1.000E-01 0.500 F 0.187 0.080 21.8 R 0.70 0.50 o 691 0.22 Yes Yes
2021GB24 O C K 2021-04-30.40409 1.000E-05 15:08:02.450 1.500E-01 0.500 F 0.115 0.567 -03° 25' 40.30" 1.000E-01 0.500 F 0.187 0.205 22.1 R 0.70 0.80 o 691 1.22 Yes Yes
2021GX5 O C K 2021-05-01.13622 1.000E-05 10:04:54.330 1.500E-01 0.500 F 0.252 -0.204 -29° 34' 29.30" 1.000E-01 0.500 F -0.016 0.013 21.3 R 0.70 1.02 o 691 0.41 Yes Yes
2021AB8 O C K 2021-05-01.14153 1.000E-05 08:29:15.860 1.500E-01 0.500 F 0.091 -0.116 -08° 42' 47.40" 1.000E-01 0.500 F 0.032 0.139 21.0 R 0.70 0.26 o 691 0.38 Yes Yes
2021GX5 O C K 2021-05-01.14842 1.000E-05 10:04:50.900 1.500E-01 0.500 F 0.252 0.620 -29° 34' 36.70" 1.000E-01 0.500 F -0.016 0.056 20.8 R 0.70 0.52 o 691 1.31 Yes Yes
2021AB8 O C K 2021-05-01.15372 1.000E-05 08:29:18.340 1.500E-01 0.500 F 0.091 0.121 -08° 43' 03.70" 1.000E-01 0.500 F 0.032 -0.542 21.4 R 0.70 0.66 o 691 1.15 Yes Yes
2021AB8 O C K 2021-05-01.16589 1.000E-05 08:29:20.810 1.500E-01 0.500 F 0.091 0.217 -08° 43' 19.40" 1.000E-01 0.500 F 0.032 -0.659 21.9 R 0.70 1.16 o 691 1.44 Yes Yes
2021GM4 O C 2021-05-01.17858 1.000E-05 09:24:05.170 1.500E-01 0.500 F 0.072 -0.736 -16° 30' 54.20" 1.000E-01 0.500 F -0.137 -0.098 20.7 V 0.70 -0.05 o 691 1.49 Yes Yes
2021GM4 O C 2021-05-01.18609 1.000E-05 09:24:04.670 1.500E-01 0.500 F 0.072 0.037 -16° 30' 56.40" 1.000E-01 0.500 F -0.137 -0.256 20.4 V 0.70 -0.35 o 691 0.52 Yes Yes
2021GM4 O C 2021-05-01.19360 1.000E-05 09:24:04.080 1.500E-01 0.500 F 0.072 -0.534 -16° 30' 57.80" 1.000E-01 0.500 F -0.137 0.366 21.1 V 0.70 0.35 o 691 1.30 Yes Yes
2021GA6 O C K 2021-05-01.19680 1.000E-05 10:22:26.790 1.500E-01 0.500 F 0.260 -0.126 +06° 59' 44.60" 1.000E-01 0.500 F 0.211 -0.036 20.9 R 0.70 -0.37 o 691 0.27 Yes Yes
2021EV O C K 2021-05-01.21056 1.000E-05 08:50:48.120 1.500E-01 0.500 F 0.073 -0.094 +22° 54' 03.10" 1.000E-01 0.500 F 0.298 -0.141 21.6 R 0.70 0.60 o 691 0.35 Yes Yes
2003FH O C 2021-05-01.21056 1.000E-05 08:52:59.470 1.500E-01 0.500 F 0.099 -0.082 +22° 23' 52.20" 1.000E-01 0.500 F 0.340 -0.140 19.4 V 0.70 -0.09 o 691 0.33 Yes Yes
2021GA6 O C K 2021-05-01.21653 1.000E-05 10:22:27.780 1.500E-01 0.500 F 0.260 -0.013 +06° 58' 26.60" 1.000E-01 0.500 F 0.211 0.154 21.7 R 0.70 0.43 o 691 0.32 Yes Yes
2021EV O C K 2021-05-01.22980 1.000E-05 08:50:50.890 1.500E-01 0.500 F 0.073 0.054 +22° 53' 23.60" 1.000E-01 0.500 F 0.298 0.143 21.0 R 0.70 0.00 o 691 0.31 Yes Yes
2003FH O C 2021-05-01.23267 1.000E-05 08:52:54.170 1.500E-01 0.500 F 0.099 -0.555 +22° 22' 37.70" 1.000E-01 0.500 F 0.340 0.228 19.5 V 0.70 0.01 o 691 1.20 Yes Yes
2021EV O C K 2021-05-01.24890 1.000E-05 08:50:53.660 1.500E-01 0.500 F 0.073 0.250 +22° 52' 43.80" 1.000E-01 0.500 F 0.298 -0.095 21.3 R 0.70 0.30 o 691 0.55 Yes Yes
2003FH O C 2021-05-01.25319 1.000E-05 08:52:49.330 1.500E-01 0.500 F 0.072 -0.205 +22° 21' 27.90" 1.000E-01 0.500 F 0.336 -0.001 19.5 V 0.70 0.01 o 691 0.41 Yes Yes
2021GY1 O C K 2021-05-01.25527 1.000E-05 11:17:32.920 1.500E-01 0.500 F 0.176 -0.523 +04° 03' 54.90" 1.000E-01 0.500 F 0.203 0.357 20.6 R 0.70 0.05 o 691 1.28 Yes Yes
2021HE O C K 2021-05-01.26016 1.000E-05 12:21:29.830 1.500E-01 0.500 F 0.169 -0.624 +10° 35' 13.30" 1.000E-01 0.500 F 0.289 0.441 20.2 R 0.70 0.25 o 691 1.54 Yes Yes
2021GY1 O C K 2021-05-01.26543 1.000E-05 11:17:30.140 1.500E-01 0.500 F 0.176 -0.533 +04° 03' 53.20" 1.000E-01 0.500 F 0.203 0.580 20.3 R 0.70 -0.25 o 691 1.59 Yes Yes
2021HE O C K 2021-05-01.27032 1.000E-05 12:21:31.010 1.500E-01 0.500 F 0.159 0.276 +10° 36' 55.80" 1.000E-01 0.500 F 0.396 -0.098 20.6 R 0.70 0.65 o 691 0.60 Yes Yes
2021GY1 O C K 2021-05-01.27558 1.000E-05 11:17:27.410 1.500E-01 0.500 F 0.176 0.015 +04° 03' 50.70" 1.000E-01 0.500 F 0.203 0.022 20.5 R 0.70 -0.05 o 691 0.05 Yes Yes
2021HE O C K 2021-05-01.28048 1.000E-05 12:21:32.110 1.500E-01 0.500 F 0.159 -0.110 +10° 38' 39.10" 1.000E-01 0.500 F 0.396 0.300 20.6 R 0.70 0.65 o 691 0.64 Yes Yes
2021FN4 O C K 2021-05-01.28808 1.000E-05 12:06:00.690 1.500E-01 0.500 F 0.249 -0.298 +22° 03' 01.10" 1.000E-01 0.500 F 0.245 0.164 21.2 R 0.70 1.31 o 691 0.67 Yes Yes
2021EY4 O C K 2021-05-01.29148 1.000E-05 12:04:08.370 1.500E-01 0.500 F 0.054 0.109 +30° 52' 24.30" 1.000E-01 0.500 F 0.304 -0.036 o 691 0.27 Yes No
2021FN4 O C K 2021-05-01.30484 1.000E-05 12:05:58.270 1.500E-01 0.500 F 0.249 -0.138 +22° 03' 00.60" 1.000E-01 0.500 F 0.245 0.145 20.4 R 0.70 0.51 o 691 0.39 Yes Yes
2021EY4 O C K 2021-05-01.30824 1.000E-05 12:04:10.210 1.500E-01 0.500 F 0.054 -0.490 +30° 52' 52.30" 1.000E-01 0.500 F 0.304 0.280 o 691 1.31 Yes No
2021FN4 O C K 2021-05-01.32159 1.000E-05 12:05:55.900 1.500E-01 0.500 F 0.249 0.287 +22° 02' 59.40" 1.000E-01 0.500 F 0.245 -0.329 19.4 R 0.70 -0.49 o 691 0.89 Yes Yes
2021EY4 O C K 2021-05-01.32499 1.000E-05 12:04:12.150 1.500E-01 0.500 F 0.054 0.032 +30° 53' 19.10" 1.000E-01 0.500 F 0.304 -0.436 o 691 1.01 Yes No
2021JL O C K 2021-05-01.34003 1.000E-05 13:15:25.200 1.500E-01 0.500 F 0.301 -0.005 -01° 25' 13.80" 1.000E-01 0.500 F 0.177 -0.068 20.8 R 0.70 0.39 o 691 0.14 Yes Yes
2021JL O C K 2021-05-01.34937 1.000E-05 13:15:28.350 1.500E-01 0.500 F 0.301 0.105 -01° 24' 39.60" 1.000E-01 0.500 F 0.177 -0.135 20.6 R 0.70 0.19 o 691 0.31 Yes Yes
2021JL O C K 2021-05-01.35872 1.000E-05 13:15:31.530 1.500E-01 0.500 F 0.301 0.391 -01° 24' 05.50" 1.000E-01 0.500 F 0.177 -0.304 20.9 R 0.70 0.48 o 691 0.99 Yes Yes
2021HJ2 O C K 2021-05-01.42100 1.000E-05 14:52:13.240 1.500E-01 0.500 F 0.275 0.152 +09° 34' 14.70" 1.000E-01 0.500 F 0.150 0.379 19.6 R 0.70 0.11 o 691 0.82 Yes Yes
2019HH4 O C K 2021-05-01.42597 1.000E-05 15:16:44.010 1.500E-01 0.500 F 0.047 -2.173 +00° 06' 50.00" 1.000E-01 0.500 F 0.254 -0.562 o 691 4.43 No No
2021HJ2 O C K 2021-05-01.43682 1.000E-05 14:52:09.420 1.500E-01 0.500 F 0.275 0.096 +09° 33' 58.00" 1.000E-01 0.500 F 0.150 0.102 19.6 R 0.70 0.11 o 691 0.28 Yes Yes
2019HH4 O C K 2021-05-01.44179 1.000E-05 15:16:42.630 1.500E-01 0.500 F 0.047 -0.703 +00° 07' 25.70" 1.000E-01 0.500 F 0.254 0.546 20.7 R 0.70 -0.40 o 691 1.81 Yes Yes
2021HJ2 O C K 2021-05-01.45265 1.000E-05 14:52:05.640 1.500E-01 0.500 F 0.275 0.294 +09° 33' 41.30" 1.000E-01 0.500 F 0.150 -0.041 19.6 R 0.70 0.11 o 691 0.60 Yes Yes
2019HH4 O C K 2021-05-01.45763 1.000E-05 15:16:41.150 1.500E-01 0.500 F 0.047 -0.754 +00° 07' 59.90" 1.000E-01 0.500 F 0.254 0.110 20.7 R 0.70 -0.40 o 691 1.55 Yes Yes
2021GY1 O C K 2021-05-03.28398 1.000E-05 11:08:54.980 1.500E-01 0.500 F 0.196 -0.041 +03° 56' 35.40" 1.000E-01 0.500 F 0.138 0.092 o 691 0.20 Yes No
2021HE O C K 2021-05-03.28877 1.000E-05 12:26:23.090 1.500E-01 0.500 F 0.110 -0.037 +16° 21' 53.90" 1.000E-01 0.500 F 0.375 -0.163 o 691 0.36 Yes No
2021GY1 O C K 2021-05-03.29319 1.000E-05 11:08:52.380 1.500E-01 0.500 F 0.196 0.021 +03° 56' 32.70" 1.000E-01 0.500 F 0.138 -0.004 21.6 R 0.70 1.05 o 691 0.04 Yes Yes
2021HE O C K 2021-05-03.29798 1.000E-05 12:26:24.300 1.500E-01 0.500 F 0.110 0.125 +16° 23' 28.40" 1.000E-01 0.500 F 0.375 -0.180 20.0 R 0.70 -0.03 o 691 0.46 Yes Yes
2021HE O C K 2021-05-03.30719 1.000E-05 12:26:25.510 1.500E-01 0.500 F 0.110 0.169 +16° 25' 03.10" 1.000E-01 0.500 F 0.375 0.054 19.8 R 0.70 -0.23 o 691 0.36 Yes Yes
2015FQ118 O C K 2021-05-03.33891 1.000E-05 14:04:10.020 1.500E-01 0.500 F 0.246 0.098 +16° 52' 20.60" 1.000E-01 0.500 F 0.361 0.009 21.9 R 0.70 0.53 o 691 0.20 Yes Yes
2021GM26 O C K 2021-05-03.35121 1.000E-05 13:52:53.880 1.500E-01 0.500 F 0.270 0.366 +08° 59' 58.70" 1.000E-01 0.500 F 0.186 -0.115 21.5 R 0.70 0.05 o 691 0.79 Yes Yes
2015FQ118 O C K 2021-05-03.37433 1.000E-05 14:04:04.720 1.500E-01 0.500 F 0.246 0.029 +16° 53' 22.00" 1.000E-01 0.500 F 0.361 0.149 22.0 R 0.70 0.63 o 691 0.31 Yes Yes
2021GM26 O C K 2021-05-03.38664 1.000E-05 13:52:54.980 1.500E-01 0.500 F 0.270 1.162 +09° 02' 09.40" 1.000E-01 0.500 F 0.186 -0.050 21.6 R 0.70 0.15 o 691 2.40 Yes Yes
2015FQ118 O C K 2021-05-03.40978 1.000E-05 14:03:59.460 1.500E-01 0.500 F 0.246 0.277 +16° 54' 23.20" 1.000E-01 0.500 F 0.361 0.237 22.0 R 0.70 0.63 o 691 0.74 Yes Yes
2021GA13 O C K 2021-05-03.43177 1.000E-05 15:49:03.170 1.500E-01 0.500 F -0.017 0.499 +14° 11' 57.60" 1.000E-01 0.500 F 0.342 0.103 20.2 R 0.70 0.05 o 691 1.03 Yes Yes
2021GA13 O C K 2021-05-03.44682 1.000E-05 15:49:03.140 1.500E-01 0.500 F -0.017 -0.099 +14° 10' 10.30" 1.000E-01 0.500 F 0.342 0.313 19.9 R 0.70 -0.25 o 691 0.65 Yes Yes
2019HH4 O C K 2021-05-03.45136 1.000E-05 15:13:37.930 1.500E-01 0.500 F 0.118 0.786 +01° 20' 50.20" 1.000E-01 0.500 F 0.181 -0.375 21.2 R 0.70 0.12 o 691 1.76 Yes Yes
2019HH4 O C K 2021-05-03.46642 1.000E-05 15:13:36.410 1.500E-01 0.500 F 0.118 -0.295 +01° 21' 24.30" 1.000E-01 0.500 F 0.181 0.663 20.6 R 0.70 -0.48 o 691 1.47 Yes Yes
2021CD3 O C K 2021-05-04.15237 1.000E-05 09:09:56.430 1.500E-01 0.500 F 0.101 0.386 +24° 18' 37.30" 1.000E-01 0.500 F 0.413 0.616 22.4 R 0.70 1.05 o 691 1.49 Yes Yes
2021CD3 O C K 2021-05-04.19819 1.000E-05 09:10:02.320 1.500E-01 0.500 F 0.101 -0.782 +24° 18' 31.20" 1.000E-01 0.500 F 0.413 0.021 22.0 R 0.70 0.65 o 691 1.62 Yes Yes
2021CY10 O C K 2021-05-04.22510 1.000E-05 10:02:07.950 1.500E-01 0.500 F 0.113 0.283 +10° 52' 08.20" 1.000E-01 0.500 F 0.197 -0.276 21.2 R 0.70 -0.07 o 691 0.80 Yes Yes
1993HC O C K 2021-05-04.23670 1.000E-05 10:06:23.760 1.500E-01 0.500 F 0.125 0.000 +14° 14' 27.70" 1.000E-01 0.500 F 0.220 -0.136 21.0 R 0.70 0.41 o 691 0.27 Yes Yes
2021CY10 O C K 2021-05-04.24264 1.000E-05 10:02:10.750 1.500E-01 0.500 F 0.140 0.403 +10° 51' 42.10" 1.000E-01 0.500 F 0.122 0.430 20.5 R 0.70 -0.77 o 691 1.19 Yes Yes
1993HC O C K 2021-05-04.25424 1.000E-05 10:06:30.690 1.500E-01 0.500 F 0.091 -0.018 +14° 14' 18.40" 1.000E-01 0.500 F 0.288 -0.246 20.9 R 0.70 0.31 o 691 0.50 Yes Yes
2021CY10 O C K 2021-05-04.26018 1.000E-05 10:02:13.570 1.500E-01 0.500 F 0.140 0.585 +10° 51' 14.90" 1.000E-01 0.500 F 0.122 0.013 o 691 1.19 Yes No
1993HC O C K 2021-05-04.27177 1.000E-05 10:06:37.620 1.500E-01 0.500 F 0.091 -0.166 +14° 14' 09.10" 1.000E-01 0.500 F 0.288 -0.241 20.8 R 0.70 0.21 o 691 0.60 Yes Yes
2021HK2 O C K 2021-05-04.28639 1.000E-05 13:16:21.510 1.500E-01 0.500 F 0.121 -0.211 +05° 09' 46.00" 1.000E-01 0.500 F 0.258 0.115 20.9 R 0.70 0.27 o 691 0.49 Yes Yes
2021GA1 O C K 2021-05-04.30241 1.000E-05 13:13:21.120 1.500E-01 0.500 F 0.207 0.050 +09° 18' 09.20" 1.000E-01 0.500 F 0.267 0.122 20.8 R 0.70 -0.48 o 691 0.27 Yes Yes
2021HK2 O C K 2021-05-04.30917 1.000E-05 13:16:31.440 1.500E-01 0.500 F 0.121 0.136 +05° 08' 45.40" 1.000E-01 0.500 F 0.258 -0.405 20.9 R 0.70 0.27 o 691 0.87 Yes Yes
2021GA1 O C K 2021-05-04.32520 1.000E-05 13:13:23.110 1.500E-01 0.500 F 0.207 -0.031 +09° 18' 22.20" 1.000E-01 0.500 F 0.267 -0.210 21.6 R 0.70 0.31 o 691 0.44 Yes Yes
2021HK2 O C K 2021-05-04.33197 1.000E-05 13:16:41.350 1.500E-01 0.500 F 0.121 -0.582 +05° 07' 45.30" 1.000E-01 0.500 F 0.258 -0.223 20.1 R 0.70 -0.53 o 691 1.27 Yes Yes
2021GR12 O C K 2021-05-04.35513 1.000E-05 14:32:24.760 1.500E-01 0.500 F 0.123 0.067 -02° 45' 07.10" 1.000E-01 0.500 F 0.151 0.255 22.3 R 0.70 0.41 o 691 0.53 Yes Yes
2018TX5 O C K 2021-05-04.37024 1.000E-05 14:42:44.980 1.500E-01 0.500 F 0.141 -0.032 -11° 38' 41.80" 1.000E-01 0.500 F 0.129 0.082 21.5 R 0.70 0.25 o 691 0.18 Yes Yes
2021GB24 O C K 2021-05-04.37570 1.000E-05 14:55:52.290 1.500E-01 0.500 F 0.172 0.027 -03° 14' 31.60" 1.000E-01 0.500 F 0.133 0.161 21.2 R 0.70 -0.08 o 691 0.33 Yes Yes
2021GR12 O C K 2021-05-04.38383 1.000E-05 14:32:22.500 1.500E-01 0.500 F 0.123 0.076 -02° 44' 55.20" 1.000E-01 0.500 F 0.151 -0.615 21.9 R 0.70 0.01 o 691 1.26 Yes Yes
2018TX5 O C K 2021-05-04.39893 1.000E-05 14:42:42.730 1.500E-01 0.500 F 0.141 0.094 -11° 38' 31.00" 1.000E-01 0.500 F 0.129 -0.001 21.3 R 0.70 0.05 o 691 0.19 Yes Yes

[1-200] [201-400] [401-600] [601-800] [801-1000] [1001-1200] [1201-1400] [1401-1600] [1601-1800] [1801-2000] [2001-2200] [2201-2400] [2401-2600] [2601-2800] [2801-3000] [3001-3200] [3201-3400] [3401-3600] [3601-3800] [3801-4000] [4001-4200] [4201-4400] [4401-4600] [4601-4800] [4801-5000] [5001-5200] [5201-5400] [5401-5600] [5601-5800] [5801-6000] [6001-6200] [6201-6400] [6401-6600] [6601-6800] [6801-7000] [7001-7200] [7201-7400] [7401-7600] [7601-7800] [7801-8000] [8001-8200] [8201-8400] [8401-8600] [8601-8800] [8801-9000] [9001-9200] [9201-9400] [9401-9600] [9601-9800] [9801-10000] [10001-10200] [10201-10400] [10401-10600] [10601-10800] [10801-11000] [11001-11200] [11201-11400] [11401-11600] [11601-11800] [11801-12000] [12001-12200] [12201-12400] [12401-12600] [12601-12800] [12801-13000] [13001-13200] [13201-13400] [13401-13600] [13601-13800] [13801-14000] [14001-14200] [14201-14400] [14401-14600] [14601-14800] [14801-15000] [15001-15200] [15201-15400] [15401-15600] [15601-15800] [15801-16000] [16001-16200] [16201-16400] [16401-16600] [16601-16800] [16801-17000] [17001-17200] [17201-17400] [17401-17600] [17601-17800] [17801-18000] [18001-18200] [18201-18400] [18401-18600] [18601-18800] [18801-19000] [19001-19200] [19201-19400] [19401-19600] [19601-19800] [19801-20000] [20001-20200] [20201-20400] [20401-20600] [20601-20800] [20801-21000] [21001-21200] [21201-21400] [21401-21600] [21601-21800] [21801-22000] [22001-22200] [22201-22400] [22401-22600] [22601-22800] [22801-23000] [23001-23200] [23201-23400] [23401-23600] [23601-23800] [23801-24000] [24001-24200] [24201-24400] [24401-24600] [24601-24800] [24801-25000] [25001-25200] [25201-25400] [25401-25600] [25601-25800] [25801-26000] [26001-26200] [26201-26400] [26401-26600] [26601-26800] [26801-27000] [27001-27200] [27201-27400] [27401-27600] [27601-27800] [27801-28000] [28001-28200] [28201-28400] [28401-28600] [28601-28800] [28801-29000] [29001-29200] [29201-29400] [29401-29600] [29601-29800] [29801-30000] [30001-30200] [30201-30400] [30401-30600] [30601-30800] [30801-31000] [31001-31200] [31201-31400] [31401-31600] [31601-31800] [31801-32000] [32001-32200] [32201-32400] [32401-32600] [32601-32800] [32801-33000] [33001-33200] [33201-33400] [33401-33600] [33601-33800] [33801-34000] [34001-34200] [34201-34400] [34401-34600] [34601-34800] [34801-35000] [35001-35200] [35201-35400] [35401-35600] [35601-35800] [35801-36000] [36001-36200] [36201-36400] [36401-36600] [36601-36800] [36801-37000] [37001-37200] [37201-37400] [37401-37600] [37601-37800] [37801-38000] [38001-38200] [38201-38400] [38401-38600] [38601-38800] [38801-39000] [39001-39200] [39201-39400] [39401-39600] [39601-39800] [39801-40000] [40001-40200] [40201-40400] [40401-40600] [40601-40800] [40801-41000] [41001-41200] [41201-41400] [41401-41600] [41601-41800] [41801-42000] [42001-42200] [42201-42400] [42401-42600] [42601-42800] [42801-43000] [43001-43200] [43201-43400] [43401-43600] [43601-43800] [43801-44000] [44001-44200] [44201-44400] [44401-44600] [44601-44800] [44801-45000] [45001-45200] [45201-45400] [45401-45600] [45601-45800] [45801-46000] [46001-46200] [46201-46400] [46401-46600] [46601-46800] [46801-47000] [47001-47200] [47201-47400] [47401-47600] [47601-47800] [47801-48000] [48001-48200] [48201-48400] [48401-48600] [48601-48800] [48801-49000] [49001-49200] [49201-49400] [49401-49600] [49601-49800] [49801-50000] [50001-50200] [50201-50388]